< < Back
Terminal Aerodrome Forecast


Current Version              Previous Versions:   1  2  3  4  5  6  7  8  9  

Terminal Aerodrome Forecast

645
FTUS44 KBMX 292336
TAFMGM
TAF
KMGM 292336Z 3000/3024 17006KT P6SM SKC
     FM300800 20006KT P6SM OVC015
     FM301200 22006KT 5SM -DZ VCSH OVC010
     FM301800 29010G16KT P6SM BKN050=

Latest METAR

782
SAUS80 KWBC 301200 RRA
MTRMGM
METAR KMGM 301153Z 10SM FEW014 SCT085 14/12 A3018 RMK AO2 LTG DSNT NW
SLP217 T01390117 10161 20139 53002 $


USA.gov is the U.S. government's official web portal to all federal, state and local government web resources and services.